createdAt,value
2023-04-09T00:00:12.790Z,15.88
2023-04-09T00:02:39.648Z,15.80
2023-04-09T00:05:07.428Z,15.35
2023-04-09T00:07:34.219Z,15.30
2023-04-09T00:10:00.947Z,14.80
2023-04-09T00:12:27.653Z,14.55
2023-04-09T00:14:54.331Z,14.88
2023-04-09T00:17:21.478Z,14.70
2023-04-09T00:19:48.426Z,13.95
2023-04-09T00:22:15.751Z,13.97
2023-04-09T00:24:42.394Z,14.40
2023-04-09T00:27:09.025Z,34.60
2023-04-09T00:29:35.663Z,15.00
2023-04-09T00:32:02.434Z,14.57
2023-04-09T00:34:29.114Z,14.97
2023-04-09T00:36:55.843Z,18.88
2023-04-09T00:39:22.544Z,17.35
2023-04-09T00:41:49.238Z,16.83
2023-04-09T00:44:15.869Z,20.85
2023-04-09T00:46:42.570Z,18.77
2023-04-09T00:49:09.294Z,15.90
2023-04-09T00:51:36.797Z,22.33
2023-04-09T00:54:03.504Z,18.25
2023-04-09T00:56:30.793Z,15.30
2023-04-09T00:58:57.409Z,14.60
2023-04-09T01:01:24.126Z,14.00
2023-04-09T01:03:51.142Z,14.07
2023-04-09T01:06:36.084Z,14.88
2023-04-09T01:09:28.527Z,15.52
2023-04-09T01:12:01.505Z,14.17
2023-04-09T01:14:50.249Z,13.85
2023-04-09T01:17:24.126Z,16.85
2023-04-09T01:20:08.537Z,16.60
2023-04-09T01:22:41.440Z,13.90
2023-04-09T01:25:43.706Z,13.00
2023-04-09T01:28:17.754Z,13.13
2023-04-09T01:30:48.455Z,13.57
2023-04-09T01:33:17.467Z,13.48
2023-04-09T01:35:46.052Z,13.02
2023-04-09T01:38:14.367Z,13.03
2023-04-09T01:40:41.193Z,12.85
2023-04-09T01:43:08.713Z,12.85
2023-04-09T01:45:35.362Z,13.40
2023-04-09T01:48:04.098Z,13.35
2023-04-09T01:50:31.262Z,12.70
2023-04-09T01:52:58.309Z,13.60
2023-04-09T01:55:24.915Z,13.80
2023-04-09T01:57:51.525Z,13.68
2023-04-09T02:00:18.699Z,13.68
2023-04-09T02:03:08.748Z,13.93
2023-04-09T02:05:41.271Z,12.95
2023-04-09T02:08:11.029Z,13.90
2023-04-09T02:10:40.423Z,13.30
2023-04-09T02:13:11.384Z,13.57
2023-04-09T02:15:40.412Z,13.27
2023-04-09T02:18:21.490Z,13.95
2023-04-09T02:20:48.200Z,15.07
2023-04-09T02:23:16.645Z,13.85
2023-04-09T02:25:44.317Z,14.82
2023-04-09T02:28:10.949Z,13.10
2023-04-09T02:30:37.702Z,13.75
2023-04-09T02:33:04.364Z,14.95
2023-04-09T02:35:31.067Z,13.85
2023-04-09T02:37:57.821Z,13.25
2023-04-09T02:40:24.560Z,13.00
2023-04-09T02:42:52.762Z,12.32
2023-04-09T02:45:19.476Z,12.40
2023-04-09T02:47:46.411Z,12.57
2023-04-09T02:50:13.127Z,13.60
2023-04-09T02:52:39.762Z,12.57
2023-04-09T02:55:06.990Z,12.90
2023-04-09T02:57:33.747Z,13.02
2023-04-09T03:00:00.567Z,13.05
2023-04-09T03:02:27.497Z,13.55
2023-04-09T03:04:54.308Z,12.47
2023-04-09T03:07:21.535Z,12.80
2023-04-09T03:09:48.265Z,12.68
2023-04-09T03:12:15.225Z,12.90
2023-04-09T03:14:41.910Z,13.65
2023-04-09T03:17:08.542Z,12.40
2023-04-09T03:19:35.308Z,12.38
2023-04-09T03:22:01.919Z,13.38
2023-04-09T03:24:28.536Z,12.93
2023-04-09T03:26:55.248Z,12.63
2023-04-09T03:29:21.950Z,12.80
2023-04-09T03:31:48.597Z,12.40
2023-04-09T03:34:15.502Z,13.73
2023-04-09T03:36:42.211Z,12.98
2023-04-09T03:39:08.863Z,21.88
2023-04-09T03:41:35.673Z,13.57
2023-04-09T03:44:02.420Z,13.70
2023-04-09T03:46:29.071Z,12.77
2023-04-09T03:48:55.670Z,11.77
2023-04-09T03:51:22.420Z,12.65
2023-04-09T03:53:49.040Z,11.87
2023-04-09T03:56:15.788Z,13.48
2023-04-09T03:58:42.514Z,13.07
2023-04-09T04:01:09.168Z,12.48
2023-04-09T04:03:36.011Z,13.93
2023-04-09T04:06:03.837Z,13.77
2023-04-09T04:08:30.591Z,13.23
2023-04-09T04:11:03.745Z,13.30
2023-04-09T04:13:30.641Z,12.85
2023-04-09T04:15:57.317Z,12.45
2023-04-09T04:18:24.076Z,12.80
2023-04-09T04:20:50.767Z,12.73
2023-04-09T04:23:17.510Z,13.15
2023-04-09T04:25:44.185Z,12.48
2023-04-09T04:28:10.889Z,12.57
2023-04-09T04:30:37.499Z,12.53
2023-04-09T04:33:04.186Z,12.93
2023-04-09T04:35:30.993Z,13.02
2023-04-09T04:37:57.676Z,12.65
2023-04-09T04:40:24.338Z,12.75
2023-04-09T04:42:51.009Z,12.87
2023-04-09T04:45:17.671Z,11.88
2023-04-09T04:47:44.681Z,12.93
2023-04-09T04:50:11.430Z,12.30
2023-04-09T04:52:40.391Z,13.43
2023-04-09T04:55:07.501Z,14.17
2023-04-09T04:57:34.148Z,12.82
2023-04-09T05:00:01.008Z,13.07
2023-04-09T05:02:27.750Z,12.98
2023-04-09T05:04:54.551Z,12.85
2023-04-09T05:07:21.250Z,12.93
2023-04-09T05:09:47.952Z,14.30
2023-04-09T05:12:15.424Z,17.15
2023-04-09T05:14:42.077Z,15.68
2023-04-09T05:17:08.739Z,13.68
2023-04-09T05:19:35.372Z,14.60
2023-04-09T05:22:02.007Z,19.58
2023-04-09T05:24:28.640Z,15.00
2023-04-09T05:26:55.877Z,13.00
2023-04-09T05:29:22.570Z,13.20
2023-04-09T05:31:49.274Z,12.93
2023-04-09T05:34:15.919Z,13.00
2023-04-09T05:36:42.602Z,13.15
2023-04-09T05:39:09.355Z,12.80
2023-04-09T05:41:38.526Z,14.35
2023-04-09T05:44:05.699Z,12.37
2023-04-09T05:46:32.466Z,13.20
2023-04-09T05:48:59.142Z,12.43
2023-04-09T05:51:25.731Z,13.60
2023-04-09T05:53:52.660Z,12.52
2023-04-09T05:56:19.509Z,12.60
2023-04-09T05:58:46.275Z,11.40
2023-04-09T06:01:12.980Z,12.07
2023-04-09T06:03:40.004Z,12.85
2023-04-09T06:06:07.139Z,12.57
2023-04-09T06:08:33.840Z,12.47
2023-04-09T06:11:00.535Z,13.02
2023-04-09T06:13:27.139Z,12.15
2023-04-09T06:15:54.038Z,12.15
2023-04-09T06:18:20.802Z,11.57
2023-04-09T06:20:47.447Z,13.17
2023-04-09T06:23:14.076Z,12.02
2023-04-09T06:25:40.853Z,12.95
2023-04-09T06:28:07.608Z,11.77
2023-04-09T06:30:36.887Z,11.55
2023-04-09T06:33:03.682Z,11.70
2023-04-09T06:35:30.362Z,11.48
2023-04-09T06:37:57.045Z,12.55
2023-04-09T06:40:23.707Z,14.43
2023-04-09T06:42:50.520Z,13.20
2023-04-09T06:45:17.202Z,11.90
2023-04-09T06:47:43.944Z,11.70
2023-04-09T06:50:10.748Z,12.25
2023-04-09T06:52:40.429Z,12.25
2023-04-09T06:55:07.349Z,12.02
2023-04-09T06:57:34.003Z,12.40
2023-04-09T07:00:00.604Z,12.25
2023-04-09T07:02:27.841Z,12.80
2023-04-09T07:04:54.749Z,12.80
2023-04-09T07:07:23.775Z,13.35
2023-04-09T07:09:53.606Z,12.23
2023-04-09T07:12:33.557Z,11.32
2023-04-09T07:15:01.451Z,12.68
2023-04-09T07:17:28.458Z,13.40
2023-04-09T07:19:55.336Z,10.88
2023-04-09T07:22:22.857Z,11.40
2023-04-09T07:24:54.213Z,13.38
2023-04-09T07:27:25.472Z,13.02
2023-04-09T07:29:57.947Z,12.25
2023-04-09T07:32:25.585Z,14.23
2023-04-09T07:34:53.059Z,12.13
2023-04-09T07:37:20.694Z,11.00
2023-04-09T07:39:48.375Z,12.85
2023-04-09T07:42:15.323Z,13.45
2023-04-09T07:44:42.070Z,10.70
2023-04-09T07:47:09.028Z,9.80
2023-04-09T07:49:37.316Z,10.50
2023-04-09T07:52:04.396Z,10.88
2023-04-09T07:54:33.586Z,10.48
2023-04-09T07:57:01.774Z,10.07
2023-04-09T07:59:29.580Z,9.73
2023-04-09T08:01:56.485Z,10.57
2023-04-09T08:04:23.362Z,9.75
2023-04-09T08:06:51.185Z,10.68
2023-04-09T08:09:18.588Z,9.88
2023-04-09T08:11:46.219Z,9.90
2023-04-09T08:14:15.943Z,10.13
2023-04-09T08:16:44.666Z,10.20
2023-04-09T08:19:11.474Z,10.30
2023-04-09T08:21:39.378Z,10.18
2023-04-09T08:24:07.197Z,9.23
2023-04-09T08:26:33.904Z,9.30
2023-04-09T08:29:00.934Z,9.20
2023-04-09T08:31:27.709Z,8.75
2023-04-09T08:33:54.447Z,9.48
2023-04-09T08:36:21.622Z,8.93
2023-04-09T08:38:48.758Z,8.85
2023-04-09T08:41:20.474Z,9.13
2023-04-09T08:43:57.865Z,8.48
2023-04-09T08:46:26.524Z,8.50
2023-04-09T08:48:53.821Z,8.07
2023-04-09T08:51:23.005Z,9.30
2023-04-09T08:53:56.452Z,8.70
2023-04-09T08:56:23.858Z,7.70
2023-04-09T08:58:51.355Z,7.80
2023-04-09T09:01:25.481Z,7.60
2023-04-09T09:04:01.403Z,6.60
2023-04-09T09:06:32.912Z,6.93
2023-04-09T09:09:09.970Z,7.05
2023-04-09T09:11:41.326Z,8.10
2023-04-09T09:14:10.170Z,7.50
2023-04-09T09:16:42.685Z,7.78
2023-04-09T09:19:25.388Z,7.43
2023-04-09T09:22:06.593Z,9.35
2023-04-09T09:24:34.406Z,8.77
2023-04-09T09:27:02.591Z,8.60
2023-04-09T09:29:29.580Z,8.80
2023-04-09T09:31:56.683Z,8.02
2023-04-09T09:34:25.313Z,7.95
2023-04-09T09:36:52.304Z,7.50
2023-04-09T09:39:19.084Z,8.80
2023-04-09T09:41:47.405Z,8.05
2023-04-09T09:44:31.563Z,8.50
2023-04-09T09:46:59.211Z,7.90
2023-04-09T09:49:25.996Z,8.05
2023-04-09T09:51:56.855Z,8.40
2023-04-09T09:54:26.222Z,8.13
2023-04-09T09:56:58.030Z,8.35
2023-04-09T09:59:30.318Z,7.90
2023-04-09T10:02:01.413Z,8.23
2023-04-09T10:04:29.860Z,7.73
2023-04-09T10:06:57.065Z,6.82
2023-04-09T10:09:27.987Z,8.25
2023-04-09T10:11:55.969Z,6.60
2023-04-09T10:14:23.117Z,6.43
2023-04-09T10:16:49.826Z,5.83
2023-04-09T10:19:17.108Z,6.25
2023-04-09T10:21:54.100Z,6.90
2023-04-09T10:24:21.884Z,7.43
2023-04-09T10:26:48.871Z,7.35
2023-04-09T10:29:16.629Z,7.77
2023-04-09T10:31:52.896Z,6.97
2023-04-09T10:34:23.615Z,7.80
2023-04-09T10:36:55.414Z,6.35
2023-04-09T10:39:27.634Z,7.15
2023-04-09T10:41:57.045Z,6.47
2023-04-09T10:44:27.072Z,6.80
2023-04-09T10:46:55.178Z,7.78
2023-04-09T10:49:24.325Z,7.68
2023-04-09T10:52:02.255Z,6.80
2023-04-09T10:54:34.751Z,7.23
2023-04-09T10:57:21.598Z,7.22
2023-04-09T10:59:50.561Z,6.97
2023-04-09T11:02:35.635Z,7.22
2023-04-09T11:05:18.487Z,8.85
2023-04-09T11:07:52.325Z,8.03
2023-04-09T11:10:21.608Z,7.28
2023-04-09T11:12:49.215Z,7.00
2023-04-09T11:15:18.303Z,6.90
2023-04-09T11:17:46.890Z,6.60
2023-04-09T11:20:15.216Z,6.80
2023-04-09T11:22:41.974Z,6.40
2023-04-09T11:25:08.939Z,5.80
2023-04-09T11:27:39.009Z,6.72
2023-04-09T11:30:06.454Z,5.70
2023-04-09T11:32:33.453Z,5.70
2023-04-09T11:35:00.167Z,5.70
2023-04-09T11:37:26.940Z,6.30
2023-04-09T11:39:57.361Z,5.32
2023-04-09T11:42:25.822Z,4.80
2023-04-09T11:44:53.012Z,4.90
2023-04-09T11:47:21.058Z,5.00
2023-04-09T11:49:47.843Z,5.63
2023-04-09T11:52:16.729Z,5.90
2023-04-09T11:54:49.301Z,5.47
2023-04-09T11:57:16.221Z,6.00
2023-04-09T11:59:43.334Z,6.10
2023-04-09T12:02:10.397Z,6.03
2023-04-09T12:04:37.203Z,5.90
2023-04-09T12:07:07.962Z,5.47
2023-04-09T12:09:34.747Z,6.03
2023-04-09T12:12:02.112Z,5.85
2023-04-09T12:14:28.780Z,5.70
2023-04-09T12:16:55.712Z,5.53
2023-04-09T12:19:25.818Z,4.47
2023-04-09T12:21:55.703Z,4.97
2023-04-09T12:24:26.159Z,5.65
2023-04-09T12:26:52.860Z,5.05
2023-04-09T12:29:21.015Z,5.35
2023-04-09T12:31:48.041Z,6.00
2023-04-09T12:34:14.767Z,6.70
2023-04-09T12:36:41.711Z,7.07
2023-04-09T12:39:11.467Z,7.43
2023-04-09T12:41:38.202Z,7.50
2023-04-09T12:44:05.249Z,6.32
2023-04-09T12:46:32.713Z,6.40
2023-04-09T12:48:59.536Z,6.45
2023-04-09T12:51:26.239Z,6.45
2023-04-09T12:53:53.238Z,6.10
2023-04-09T12:56:20.240Z,6.40
2023-04-09T12:58:46.874Z,6.27
2023-04-09T13:01:13.682Z,5.35
2023-04-09T13:03:41.466Z,5.55
2023-04-09T13:06:08.847Z,5.70
2023-04-09T13:08:35.784Z,6.10
2023-04-09T13:11:02.824Z,5.60
2023-04-09T13:13:29.713Z,6.10
2023-04-09T13:15:56.403Z,6.97
2023-04-09T13:18:23.055Z,6.55
2023-04-09T13:20:49.695Z,7.03
2023-04-09T13:23:16.349Z,6.40
2023-04-09T13:25:42.943Z,7.22
2023-04-09T13:28:09.901Z,7.40
2023-04-09T13:30:36.665Z,6.70
2023-04-09T13:33:03.679Z,7.18
2023-04-09T13:35:31.007Z,6.47
2023-04-09T13:37:57.631Z,6.53
2023-04-09T13:40:24.456Z,7.10
2023-04-09T13:42:51.061Z,7.10
2023-04-09T13:45:18.535Z,6.93
2023-04-09T13:47:45.176Z,6.70
2023-04-09T13:50:13.816Z,6.43
2023-04-09T13:52:40.516Z,6.72
2023-04-09T13:55:08.074Z,6.93
2023-04-09T13:57:34.757Z,6.68
2023-04-09T14:00:04.447Z,7.23
2023-04-09T14:02:31.517Z,6.50
2023-04-09T14:04:58.566Z,6.50
2023-04-09T14:07:25.297Z,5.97
2023-04-09T14:09:51.913Z,6.13
2023-04-09T14:12:18.837Z,5.70
2023-04-09T14:14:45.484Z,5.95
2023-04-09T14:17:12.183Z,5.80
2023-04-09T14:19:39.179Z,6.07
2023-04-09T14:22:07.372Z,5.90
2023-04-09T14:24:39.685Z,5.47
2023-04-09T14:27:07.676Z,6.00
2023-04-09T14:29:34.667Z,5.50
2023-04-09T14:32:01.416Z,5.80
2023-04-09T14:34:31.188Z,4.93
2023-04-09T14:36:57.922Z,6.40
2023-04-09T14:39:24.951Z,6.35
2023-04-09T14:41:52.136Z,7.75
2023-04-09T14:44:18.828Z,4.90
2023-04-09T14:46:45.781Z,5.22
2023-04-09T14:49:12.484Z,5.27
2023-04-09T14:51:39.255Z,5.88
2023-04-09T14:54:06.031Z,5.35
2023-04-09T14:56:32.667Z,5.47
2023-04-09T14:58:59.954Z,4.90
2023-04-09T15:01:27.521Z,5.10
2023-04-09T15:03:54.648Z,5.03
2023-04-09T15:06:21.545Z,5.07
2023-04-09T15:08:48.166Z,4.93
2023-04-09T15:11:20.627Z,5.00
2023-04-09T15:13:47.280Z,4.70
2023-04-09T15:16:28.461Z,5.32
2023-04-09T15:18:57.578Z,5.82
2023-04-09T15:21:26.043Z,6.13
2023-04-09T15:23:53.406Z,4.70
2023-04-09T15:26:20.682Z,4.73
2023-04-09T15:28:47.515Z,4.82
2023-04-09T15:31:14.195Z,5.07
2023-04-09T15:33:42.547Z,5.20
2023-04-09T15:36:09.431Z,5.15
2023-04-09T15:38:36.162Z,5.13
2023-04-09T15:41:02.935Z,4.75
2023-04-09T15:43:29.599Z,5.05
2023-04-09T15:45:56.332Z,4.80
2023-04-09T15:48:23.018Z,4.20
2023-04-09T15:50:49.610Z,4.23
2023-04-09T15:53:16.315Z,4.20
2023-04-09T15:55:42.942Z,4.22
2023-04-09T15:58:09.640Z,4.40
2023-04-09T16:00:36.552Z,4.45
2023-04-09T16:03:03.412Z,4.63
2023-04-09T16:05:30.339Z,6.05
2023-04-09T16:07:59.584Z,6.78
2023-04-09T16:10:26.901Z,7.63
2023-04-09T16:12:53.582Z,4.32
2023-04-09T16:15:20.270Z,4.20
2023-04-09T16:17:46.929Z,4.28
2023-04-09T16:20:13.714Z,4.60
2023-04-09T16:22:40.514Z,4.22
2023-04-09T16:25:07.773Z,4.50
2023-04-09T16:27:34.482Z,5.20
2023-04-09T16:30:01.295Z,3.88
2023-04-09T16:32:27.990Z,3.85
2023-04-09T16:34:56.050Z,3.80
2023-04-09T16:37:22.669Z,3.58
2023-04-09T16:39:49.323Z,3.63
2023-04-09T16:42:16.015Z,3.42
2023-04-09T16:44:42.649Z,3.53
2023-04-09T16:47:09.611Z,3.67
2023-04-09T16:49:36.292Z,3.47
2023-04-09T16:52:02.980Z,3.60
2023-04-09T16:54:29.759Z,3.60
2023-04-09T16:56:58.002Z,3.85
2023-04-09T16:59:24.677Z,3.45
2023-04-09T17:01:51.804Z,3.40
2023-04-09T17:04:18.676Z,3.40
2023-04-09T17:06:45.863Z,3.13
2023-04-09T17:09:12.597Z,3.88
2023-04-09T17:11:39.335Z,3.30
2023-04-09T17:14:06.039Z,3.70
2023-04-09T17:16:33.226Z,3.80
2023-04-09T17:18:59.890Z,3.50
2023-04-09T17:21:26.565Z,3.80
2023-04-09T17:23:53.318Z,3.40
2023-04-09T17:26:20.795Z,3.90
2023-04-09T17:28:47.597Z,3.77
2023-04-09T17:31:16.057Z,5.22
2023-04-09T17:33:48.010Z,4.80
2023-04-09T17:36:17.209Z,4.95
2023-04-09T17:38:43.872Z,4.43
2023-04-09T17:41:10.804Z,4.90
2023-04-09T17:43:37.563Z,4.63
2023-04-09T17:46:04.620Z,4.60
2023-04-09T17:48:32.179Z,4.55
2023-04-09T17:50:58.988Z,4.70
2023-04-09T17:53:25.633Z,4.20
2023-04-09T17:55:52.735Z,5.05
2023-04-09T17:58:19.361Z,4.40
2023-04-09T18:00:46.340Z,14.48
2023-04-09T18:03:13.534Z,5.55
2023-04-09T18:05:40.495Z,4.77
2023-04-09T18:08:07.426Z,3.80
2023-04-09T18:10:34.231Z,4.40
2023-04-09T18:13:00.920Z,4.70
2023-04-09T18:15:28.520Z,4.32
2023-04-09T18:17:55.437Z,4.30
2023-04-09T18:20:22.133Z,4.40
2023-04-09T18:22:48.962Z,4.72
2023-04-09T18:25:15.812Z,4.65
2023-04-09T18:27:42.461Z,4.88
2023-04-09T18:30:09.580Z,4.80
2023-04-09T18:32:36.361Z,5.30
2023-04-09T18:35:03.028Z,6.60
2023-04-09T18:37:30.042Z,6.28
2023-04-09T18:39:57.453Z,5.70
2023-04-09T18:42:24.180Z,8.60
2023-04-09T18:44:50.817Z,16.02
2023-04-09T18:47:17.549Z,12.63
2023-04-09T18:49:44.223Z,7.20
2023-04-09T18:52:11.022Z,7.80
2023-04-09T18:54:38.955Z,6.07
2023-04-09T18:57:05.900Z,5.82
2023-04-09T18:59:36.152Z,7.97
2023-04-09T19:02:05.046Z,6.95
2023-04-09T19:04:36.507Z,8.15
2023-04-09T19:07:03.351Z,7.50
2023-04-09T19:09:30.104Z,6.80
2023-04-09T19:11:57.713Z,12.90
2023-04-09T19:14:25.782Z,11.80
2023-04-09T19:16:52.397Z,9.18
2023-04-09T19:19:19.148Z,7.40
2023-04-09T19:21:45.878Z,7.97
2023-04-09T19:24:12.589Z,8.07
2023-04-09T19:26:39.263Z,7.20
2023-04-09T19:29:06.152Z,9.00
2023-04-09T19:31:32.819Z,8.90
2023-04-09T19:33:59.516Z,7.07
2023-04-09T19:36:26.865Z,7.15
2023-04-09T19:38:53.757Z,8.13
2023-04-09T19:41:20.623Z,8.75
2023-04-09T19:43:47.319Z,8.70
2023-04-09T19:46:14.045Z,9.30
2023-04-09T19:48:40.926Z,10.80
2023-04-09T19:51:07.617Z,9.60
2023-04-09T19:53:36.311Z,9.70
2023-04-09T19:56:03.210Z,10.37
2023-04-09T19:58:32.040Z,10.93
2023-04-09T20:00:58.715Z,10.10
2023-04-09T20:03:25.705Z,10.57
2023-04-09T20:05:53.501Z,10.10
2023-04-09T20:08:20.180Z,8.90
2023-04-09T20:10:47.326Z,9.13
2023-04-09T20:13:14.095Z,8.95
2023-04-09T20:15:40.798Z,8.82
2023-04-09T20:18:07.583Z,8.98
2023-04-09T20:20:34.246Z,9.07
2023-04-09T20:23:00.943Z,10.00
2023-04-09T20:25:33.892Z,9.15
2023-04-09T20:28:01.824Z,8.45
2023-04-09T20:30:28.745Z,9.00
2023-04-09T20:32:55.445Z,8.53
2023-04-09T20:35:22.238Z,9.45
2023-04-09T20:37:49.931Z,8.90
2023-04-09T20:40:16.911Z,8.52
2023-04-09T20:42:43.617Z,8.35
2023-04-09T20:45:10.903Z,8.70
2023-04-09T20:47:37.547Z,9.20
2023-04-09T20:50:04.982Z,8.50
2023-04-09T20:52:31.707Z,8.80
2023-04-09T20:54:58.450Z,9.13
2023-04-09T20:57:25.331Z,8.27
2023-04-09T20:59:53.797Z,8.60
2023-04-09T21:02:21.211Z,9.18
2023-04-09T21:04:48.028Z,8.98
2023-04-09T21:07:14.845Z,9.27
2023-04-09T21:09:41.571Z,8.70
2023-04-09T21:12:08.308Z,8.98
2023-04-09T21:14:35.077Z,9.65
2023-04-09T21:17:01.847Z,12.10
2023-04-09T21:19:28.550Z,10.43
2023-04-09T21:21:55.442Z,9.17
2023-04-09T21:24:22.824Z,9.45
2023-04-09T21:26:52.056Z,9.05
2023-04-09T21:29:21.173Z,9.63
2023-04-09T21:31:48.918Z,9.60
2023-04-09T21:34:15.960Z,8.97
2023-04-09T21:36:44.937Z,9.05
2023-04-09T21:39:12.328Z,9.02
2023-04-09T21:41:39.156Z,10.13
2023-04-09T21:44:08.278Z,9.50
2023-04-09T21:46:36.977Z,9.30
2023-04-09T21:49:04.592Z,8.98
2023-04-09T21:51:32.043Z,10.05
2023-04-09T21:54:04.091Z,10.70
2023-04-09T21:56:32.402Z,12.63
2023-04-09T21:58:59.461Z,10.70
2023-04-09T22:01:29.433Z,12.10
2023-04-09T22:03:57.623Z,10.77
2023-04-09T22:06:24.363Z,10.63
2023-04-09T22:08:56.032Z,9.52
2023-04-09T22:11:26.851Z,9.87
2023-04-09T22:13:54.179Z,9.32
2023-04-09T22:16:20.977Z,9.15
2023-04-09T22:18:47.741Z,8.82
2023-04-09T22:21:17.658Z,8.77
2023-04-09T22:23:44.283Z,8.83
2023-04-09T22:26:11.105Z,8.30
2023-04-09T22:28:38.451Z,12.43
2023-04-09T22:31:06.039Z,8.95
2023-04-09T22:33:32.863Z,8.85
2023-04-09T22:35:59.917Z,8.80
2023-04-09T22:38:26.721Z,8.55
2023-04-09T22:40:53.388Z,11.57
2023-04-09T22:43:20.061Z,15.30
2023-04-09T22:45:54.522Z,12.75
2023-04-09T22:48:22.082Z,12.73
2023-04-09T22:50:49.819Z,9.57
2023-04-09T22:53:19.331Z,8.88
2023-04-09T22:55:54.540Z,10.38
2023-04-09T22:58:21.289Z,7.88
2023-04-09T23:00:48.262Z,8.27
2023-04-09T23:03:15.309Z,7.85
2023-04-09T23:05:42.288Z,8.70
2023-04-09T23:08:09.645Z,7.82
2023-04-09T23:10:36.308Z,8.13
2023-04-09T23:13:03.354Z,8.20
2023-04-09T23:15:30.062Z,7.70
2023-04-09T23:17:57.000Z,7.18
2023-04-09T23:20:23.895Z,7.70
2023-04-09T23:22:50.627Z,8.00
2023-04-09T23:25:17.810Z,7.60
2023-04-09T23:27:44.768Z,7.82
2023-04-09T23:30:16.683Z,7.57
2023-04-09T23:32:46.682Z,7.78
2023-04-09T23:35:13.698Z,8.00
2023-04-09T23:37:42.605Z,7.23
2023-04-09T23:40:10.564Z,7.00
2023-04-09T23:42:37.240Z,7.97
2023-04-09T23:45:05.721Z,7.80
2023-04-09T23:47:34.340Z,7.85
2023-04-09T23:50:04.761Z,7.43
2023-04-09T23:52:34.027Z,6.30
2023-04-09T23:55:01.070Z,7.90
2023-04-09T23:57:27.781Z,6.93
2023-04-09T23:59:54.554Z,7.07
